Time;durP1;ratioP1;P1;durP2;ratioP2;P2;SDS_P1;SDS_P2;PMS_P1;PMS_P2;Temp;Humidity;BMP_temperature;BMP_pressure;BME280_temperature;BME280_humidity;BME280_pressure;Samples;Min_cycle;Max_cycle;Signal;HPM_P1;HPM_P2
2021/11/30 05:41:47;;;;;;;11.00;5.37;;;;;;;2.08;81.73;98439.02;1535410;91;21475;-38
2021/11/30 05:44:14;;;;;;;10.55;6.15;;;;;;;2.15;81.20;98445.52;1541266;93;21084;-45
2021/11/30 05:46:41;;;;;;;10.95;6.70;;;;;;;2.19;81.47;98445.52;1542098;91;21090;-38
2021/11/30 05:49:07;;;;;;;11.18;6.62;;;;;;;2.23;81.35;98455.00;1539925;93;21067;-38
2021/11/30 05:51:34;;;;;;;8.35;6.05;;;;;;;2.27;81.52;98454.59;1564639;90;21081;-45
2021/11/30 05:54:02;;;;;;;10.60;6.45;;;;;;;2.32;81.53;98452.47;1567162;90;21022;-37
2021/11/30 05:56:29;;;;;;;11.25;6.72;;;;;;;2.36;81.02;98461.92;1560522;90;21143;-44
2021/11/30 05:58:57;;;;;;;8.98;5.90;;;;;;;2.43;81.16;98467.11;1560933;90;21100;-37
2021/11/30 06:01:29;;;;;;;9.70;7.25;;;;;;;2.46;81.03;98464.12;1567166;90;21272;-42
2021/11/30 06:03:58;;;;;;;9.73;6.53;;;;;;;2.50;81.08;98469.73;1567162;90;21104;-40
2021/11/30 06:06:30;;;;;;;10.43;6.65;;;;;;;2.53;81.08;98488.23;1564573;90;21171;-38
2021/11/30 06:08:58;;;;;;;10.05;6.62;;;;;;;2.55;80.68;98505.87;1559414;90;21011;-37
2021/11/30 06:11:25;;;;;;;8.78;6.55;;;;;;;2.59;80.92;98507.61;1565277;90;21119;-44
2021/11/30 06:13:55;;;;;;;9.38;7.33;;;;;;;2.60;81.38;98520.52;1563731;90;21002;-38
2021/11/30 06:16:25;;;;;;;10.75;6.72;;;;;;;2.63;81.82;98513.23;1547464;90;21712;-37
2021/11/30 06:18:52;;;;;;;10.65;7.33;;;;;;;2.64;81.59;98508.50;1563424;90;21420;-45
2021/11/30 06:21:23;;;;;;;10.90;7.80;;;;;;;2.65;81.63;98499.45;1561972;90;22011;-38
2021/11/30 06:24:19;;;;;;;12.37;7.78;;;;;;;2.68;82.12;98486.14;1565570;90;21655;-38
2021/11/30 06:26:48;;;;;;;15.53;8.10;;;;;;;2.70;81.58;98480.54;1560013;90;21662;-38
2021/11/30 06:29:26;;;;;;;12.82;7.92;;;;;;;2.73;81.28;98505.95;1541972;91;21039;-38
2021/11/30 06:32:53;;;;;;;11.18;7.15;;;;;;;2.77;81.15;98496.48;1564603;90;21783;-38
2021/11/30 06:35:56;;;;;;;10.58;6.70;;;;;;;2.80;81.44;98515.44;1560417;90;21167;-39
2021/11/30 06:39:29;;;;;;;10.90;6.47;;;;;;;2.83;80.39;98507.68;1561616;91;21104;-46
2021/11/30 06:42:25;;;;;;;11.95;6.47;;;;;;;2.89;79.56;98515.45;1561120;90;21638;-38
2021/11/30 06:45:10;;;;;;;9.63;6.58;;;;;;;2.92;79.20;98530.11;1571017;89;21575;-38
2021/11/30 06:47:37;;;;;;;10.15;6.10;;;;;;;2.93;78.64;98516.33;1541559;91;21027;-38
2021/11/30 06:50:05;;;;;;;10.13;6.45;;;;;;;2.95;78.15;98540.43;1567534;89;21072;-38
2021/11/30 06:52:32;;;;;;;8.60;6.42;;;;;;;2.98;78.39;98530.55;1569940;89;21059;-38
2021/11/30 06:54:59;;;;;;;10.72;7.15;;;;;;;3.01;78.47;98548.20;1570693;90;21029;-46
2021/11/30 06:57:26;;;;;;;8.65;6.03;;;;;;;3.04;78.54;98527.55;1569859;89;21995;-37
2021/11/30 06:59:56;;;;;;;9.20;6.50;;;;;;;3.06;78.06;98550.36;1569743;89;21001;-38
2021/11/30 07:02:21;;;;;;;9.83;6.85;;;;;;;3.08;77.78;98539.63;1571162;89;21076;-38
2021/11/30 07:04:52;;;;;;;11.83;7.80;;;;;;;3.07;78.80;98544.33;1545266;91;21961;-46
2021/11/30 07:07:32;;;;;;;12.60;6.70;;;;;;;3.11;79.44;98549.95;1542338;91;21548;-45
2021/11/30 07:15:06;;;;;;;10.40;7.20;;;;;;;3.10;78.91;98551.25;1544820;90;21015;-46
2021/11/30 07:17:32;;;;;;;12.40;7.40;;;;;;;3.06;78.30;98574.05;1543023;91;21098;-39
2021/11/30 07:19:59;;;;;;;10.45;7.10;;;;;;;3.01;78.38;98566.72;1538704;91;21067;-45
2021/11/30 07:22:26;;;;;;;11.03;7.60;;;;;;;2.95;78.24;98564.97;1543340;91;21171;-46
2021/11/30 07:24:53;;;;;;;10.63;7.03;;;;;;;2.90;78.95;98566.28;1539670;91;21586;-45
2021/11/30 07:27:19;;;;;;;10.05;6.92;;;;;;;2.90;78.99;98568.00;1542894;91;21112;-38
2021/11/30 07:29:46;;;;;;;9.53;6.92;;;;;;;2.91;79.32;98571.02;1540711;91;21460;-38
2021/11/30 07:32:13;;;;;;;10.68;7.58;;;;;;;2.94;79.65;98566.70;1543040;91;21567;-37
2021/11/30 07:34:40;;;;;;;16.97;8.38;;;;;;;3.02;79.83;98566.74;1543601;91;21092;-38
2021/11/30 07:37:07;;;;;;;14.05;7.30;;;;;;;3.08;79.68;98556.42;1546663;90;21191;-38
2021/11/30 07:39:34;;;;;;;20.35;8.98;;;;;;;3.16;79.84;98551.26;1568844;89;21476;-45
2021/11/30 07:42:01;;;;;;;15.80;8.58;;;;;;;3.22;78.82;98547.82;1565488;89;21108;-46
2021/11/30 07:48:47;;;;;;;13.05;7.47;;;;;;;3.32;79.00;98543.11;1568065;89;21217;-40
2021/11/30 07:51:16;;;;;;;11.57;6.72;;;;;;;3.30;79.35;98531.88;1569428;89;21128;-47
2021/11/30 07:53:44;;;;;;;13.22;6.87;;;;;;;3.28;78.75;98532.32;1571521;89;21069;-46
2021/11/30 07:56:11;;;;;;;13.40;8.53;;;;;;;3.25;78.21;98524.15;1544964;91;21064;-40
2021/11/30 07:58:39;;;;;;;15.98;7.78;;;;;;;3.30;79.13;98518.95;1542591;91;21780;-48
2021/11/30 08:01:24;;;;;;;11.05;7.10;;;;;;;3.38;78.17;98515.97;1545118;91;21104;-39
2021/11/30 08:03:50;;;;;;;11.08;6.83;;;;;;;3.49;76.38;98532.78;1544755;91;21658;-37
2021/11/30 08:06:17;;;;;;;9.83;6.42;;;;;;;3.54;76.00;98521.98;1546246;91;21621;-43
2021/11/30 08:08:45;;;;;;;16.50;8.53;;;;;;;3.59;76.28;98528.88;1549243;91;21047;-45
2021/11/30 08:11:12;;;;;;;10.32;6.42;;;;;;;3.65;75.99;98533.19;1541293;91;21107;-45
2021/11/30 08:13:40;;;;;;;11.45;6.67;;;;;;;3.69;74.13;98533.19;1540041;91;22143;-37
2021/11/30 08:16:07;;;;;;;11.12;6.22;;;;;;;3.73;74.62;98531.48;1546188;91;21200;-39
2021/11/30 08:18:34;;;;;;;13.22;6.97;;;;;;;3.78;73.66;98543.13;1540274;91;21098;-38
2021/11/30 08:21:01;;;;;;;10.28;5.83;;;;;;;3.82;73.51;98538.35;1549721;90;21657;-45
2021/11/30 08:23:29;;;;;;;18.95;7.37;;;;;;;3.86;73.90;98546.12;1548846;91;21079;-46
2021/11/30 08:25:56;;;;;;;16.17;7.45;;;;;;;3.91;73.52;98568.97;1547873;91;21107;-45
2021/11/30 08:28:23;;;;;;;12.10;6.75;;;;;;;3.92;71.89;98559.05;1545578;91;21210;-45
2021/11/30 08:30:50;;;;;;;17.77;7.92;;;;;;;3.91;71.32;98562.50;1550789;89;21527;-45
2021/11/30 08:33:18;;;;;;;15.55;7.37;;;;;;;3.92;71.86;98551.72;1540938;91;21111;-45
2021/11/30 08:35:46;;;;;;;9.98;6.08;;;;;;;3.95;71.69;98562.94;1549984;90;21096;-45
2021/11/30 08:38:14;;;;;;;9.15;5.92;;;;;;;3.97;71.30;98544.38;1549042;91;21106;-45
2021/11/30 08:40:40;;;;;;;8.98;5.00;;;;;;;3.96;70.29;98554.30;1539028;91;21076;-46
2021/11/30 08:43:07;;;;;;;13.32;5.97;;;;;;;3.94;69.25;98562.91;1542880;91;21762;-46
2021/11/30 08:45:34;;;;;;;11.18;6.30;;;;;;;3.93;68.83;98559.91;1547196;90;21703;-45
2021/11/30 08:48:01;;;;;;;12.35;6.87;;;;;;;3.97;69.65;98548.27;1537911;91;21058;-45
2021/11/30 08:50:28;;;;;;;11.35;5.58;;;;;;;4.01;69.11;98547.84;1540054;91;21048;-38
2021/11/30 08:52:55;;;;;;;8.60;4.75;;;;;;;4.07;68.70;98540.50;1541629;91;21495;-46
2021/11/30 08:55:22;;;;;;;9.43;4.28;;;;;;;4.10;67.32;98549.53;1576517;89;21112;-45
2021/11/30 08:57:49;;;;;;;5.12;3.95;;;;;;;4.15;67.77;98542.63;1572825;89;21069;-38
2021/11/30 09:00:20;;;;;;;8.10;4.08;;;;;;;4.17;66.84;98532.69;1570838;89;21082;-37
2021/11/30 09:02:47;;;;;;;4.85;3.70;;;;;;;4.20;66.09;98526.66;1568942;89;21150;-45
2021/11/30 09:05:15;;;;;;;5.28;3.80;;;;;;;4.21;62.99;98530.52;1570240;89;21645;-45
2021/11/30 09:07:42;;;;;;;4.20;3.02;;;;;;;4.20;62.33;98535.72;1571606;89;21259;-46
2021/11/30 09:10:11;;;;;;;5.65;3.27;;;;;;;4.17;61.62;98535.70;1573496;88;21606;-38
2021/11/30 09:13:03;;;;;;;8.30;3.87;;;;;;;4.16;62.71;98534.84;1566562;89;21055;-37
2021/11/30 09:20:39;;;;;;;4.05;2.80;;;;;;;4.24;63.47;98542.62;1546073;90;21837;-44
2021/11/30 09:24:08;;;;;;;5.78;3.70;;;;;;;4.33;61.50;98554.66;1521256;92;21719;-45
2021/11/30 09:27:30;;;;;;;6.37;3.65;;;;;;;4.30;62.10;98554.69;1536919;91;21124;-45
2021/11/30 09:30:16;;;;;;;4.70;3.12;;;;;;;4.24;62.05;98564.62;1544573;91;21068;-45
2021/11/30 09:32:52;;;;;;;4.47;2.90;;;;;;;4.22;61.67;98561.16;1551500;91;21188;-44
2021/11/30 09:35:21;;;;;;;5.53;4.08;;;;;;;4.21;62.69;98563.32;1544877;91;21124;-45
2021/11/30 09:37:50;;;;;;;6.97;3.77;;;;;;;4.23;62.48;98556.40;1522522;91;21111;-45
2021/11/30 09:40:20;;;;;;;5.65;3.45;;;;;;;4.24;63.62;98559.01;1541632;90;21092;-46
2021/11/30 09:42:50;;;;;;;4.70;3.05;;;;;;;4.24;64.32;98556.86;1546594;91;21111;-45
2021/11/30 09:45:34;;;;;;;5.58;3.95;;;;;;;4.25;64.09;98554.25;1530435;91;21094;-37
2021/11/30 09:48:03;;;;;;;4.60;3.35;;;;;;;4.28;63.94;98568.47;1544652;90;21139;-38
2021/11/30 09:50:38;;;;;;;5.00;3.33;;;;;;;4.32;62.89;98565.45;1569773;89;22535;-44
2021/11/30 09:53:08;;;;;;;4.95;3.33;;;;;;;4.33;63.16;98559.84;1567504;89;21554;-45
2021/11/30 09:55:41;;;;;;;5.47;3.52;;;;;;;4.35;62.40;98571.05;1574690;89;21425;-46
2021/11/30 09:58:17;;;;;;;5.37;3.52;;;;;;;4.53;62.46;98538.64;1574123;89;21067;-37
2021/11/30 10:00:48;;;;;;;4.53;3.17;;;;;;;4.76;62.44;98536.81;1566824;89;21146;-45
2021/11/30 10:03:30;;;;;;;5.10;3.35;;;;;;;4.94;61.98;98532.41;1545330;89;21599;-38
2021/11/30 10:09:29;;;;;;;4.62;3.25;;;;;;;4.92;59.34;98536.28;1571184;89;21634;-47
2021/11/30 10:15:35;;;;;;;3.75;3.08;;;;;;;4.69;60.41;98522.58;1564115;89;21607;-46
2021/11/30 10:19:54;;;;;;;5.15;3.67;;;;;;;4.56;59.53;98523.08;1566545;89;21076;-45
2021/11/30 10:23:17;;;;;;;4.60;3.60;;;;;;;4.42;60.75;98514.52;1564608;89;21028;-38
2021/11/30 10:26:57;;;;;;;4.42;2.95;;;;;;;4.34;62.41;98513.22;1569001;88;21165;-45
2021/11/30 10:30:40;;;;;;;3.62;3.08;;;;;;;4.28;60.56;98510.22;1568557;89;21115;-47
2021/11/30 10:33:37;;;;;;;4.50;3.52;;;;;;;4.22;61.22;98520.59;1568208;89;21112;-47
2021/11/30 10:36:14;;;;;;;;;;;;;;;4.18;60.01;98521.92;1573311;89;21522;-47
2021/11/30 10:46:09;;;;;;;3.70;3.12;;;;;;;4.17;60.38;98508.52;1568113;89;21136;-38
2021/11/30 10:49:51;;;;;;;4.37;3.00;;;;;;;4.16;59.71;98480.48;1568366;89;21228;-46
2021/11/30 10:52:30;;;;;;;3.52;2.65;;;;;;;4.14;59.59;98475.77;1628799;86;21048;-45
2021/11/30 10:55:12;;;;;;;4.87;3.72;;;;;;;4.13;60.23;98466.72;1640328;85;21619;-45
2021/11/30 10:57:39;;;;;;;7.50;3.93;;;;;;;4.09;60.36;98473.62;1627876;87;21052;-45
2021/11/30 11:00:33;;;;;;;8.43;3.62;;;;;;;4.07;61.23;98462.86;1632971;86;21052;-45
2021/11/30 11:07:36;;;;;;;4.42;3.45;;;;;;;4.00;62.75;98464.17;1602304;87;21171;-46
2021/11/30 11:11:02;;;;;;;3.62;3.02;;;;;;;3.99;62.37;98458.97;1622789;87;21679;-46
2021/11/30 11:14:36;;;;;;;7.03;3.95;;;;;;;3.93;61.23;98448.64;1589036;88;21435;-38
2021/11/30 11:22:17;;;;;;;4.90;3.25;;;;;;;3.86;63.57;98459.88;1651885;84;21943;-39
2021/11/30 11:33:18;;;;;;;8.40;4.22;;;;;;;3.75;64.96;98432.73;1650850;85;21904;-46
2021/11/30 11:36:05;;;;;;;10.73;4.00;;;;;;;3.68;65.20;98420.25;1645736;85;21119;-38
2021/11/30 11:38:44;;;;;;;5.20;3.80;;;;;;;3.65;65.12;98430.63;1648019;85;21438;-46
2021/11/30 11:41:13;;;;;;;6.05;3.95;;;;;;;3.64;65.72;98434.48;1652948;85;21013;-46
2021/11/30 11:43:40;;;;;;;5.35;3.85;;;;;;;3.63;66.71;98453.02;1644882;85;21004;-39
2021/11/30 11:46:16;;;;;;;4.62;3.60;;;;;;;3.66;66.73;98463.81;1648012;85;21048;-39
2021/11/30 11:48:45;;;;;;;7.75;3.92;;;;;;;3.63;66.13;98463.80;1653236;85;21790;-38
2021/11/30 11:51:12;;;;;;;3.47;3.12;;;;;;;3.61;64.77;98470.70;1655481;85;21032;-47
2021/11/30 11:53:54;;;;;;;7.20;4.15;;;;;;;3.58;64.57;98471.55;1659765;85;21022;-38
2021/11/30 11:56:33;;;;;;;6.22;4.47;;;;;;;3.56;64.73;98469.84;1620936;87;21873;-47
2021/11/30 11:59:15;;;;;;;5.78;3.90;;;;;;;3.55;64.80;98470.72;1656468;85;21430;-46
2021/11/30 12:02:00;;;;;;;10.48;6.17;;;;;;;3.55;63.19;98468.99;1654020;85;21601;-37
2021/11/30 12:04:29;;;;;;;9.10;5.75;;;;;;;3.53;62.32;98472.42;1656905;85;21304;-38
2021/11/30 12:06:59;;;;;;;7.25;5.70;;;;;;;3.51;62.53;98473.72;1609984;87;21483;-46
2021/11/30 12:09:31;;;;;;;8.63;4.70;;;;;;;3.52;63.84;98461.22;1607524;87;21036;-38
2021/11/30 12:12:22;;;;;;;5.70;4.00;;;;;;;3.53;64.48;98462.08;1612543;87;21064;-38
2021/11/30 12:14:50;;;;;;;6.60;4.30;;;;;;;3.53;64.75;98474.57;1619532;86;21056;-39
2021/11/30 12:17:27;;;;;;;5.40;4.15;;;;;;;3.54;64.46;98480.60;1623798;87;21005;-38
2021/11/30 12:20:04;;;;;;;8.33;4.92;;;;;;;3.53;63.92;98482.33;1620128;87;21082;-45
2021/11/30 12:23:00;;;;;;;8.10;5.28;;;;;;;3.54;64.77;98484.48;1621890;87;21038;-47
2021/11/30 12:25:48;;;;;;;7.37;5.35;;;;;;;3.54;65.44;98485.38;1637290;85;21999;-44
2021/11/30 12:28:47;;;;;;;5.78;4.03;;;;;;;3.55;64.97;98484.50;1624028;87;21362;-44
2021/11/30 12:31:35;;;;;;;7.05;4.03;;;;;;;3.56;64.92;98487.52;1624171;87;21169;-45
2021/11/30 12:34:03;;;;;;;5.62;4.47;;;;;;;3.54;64.44;98490.55;1627627;87;21048;-37
2021/11/30 12:36:35;;;;;;;5.78;3.83;;;;;;;3.53;64.76;98492.67;1624385;87;21516;-38
2021/11/30 12:39:03;;;;;;;5.00;3.52;;;;;;;3.52;65.13;98490.09;1627552;87;21032;-37
2021/11/30 12:41:42;;;;;;;6.05;3.85;;;;;;;3.49;64.82;98484.51;1627043;87;21646;-44
2021/11/30 12:44:16;;;;;;;5.50;3.40;;;;;;;3.49;64.82;98494.00;1629845;87;21046;-37
2021/11/30 12:46:47;;;;;;;5.25;3.60;;;;;;;3.45;64.22;98483.64;1629267;87;21087;-45
2021/11/30 12:49:28;;;;;;;5.12;3.50;;;;;;;3.43;64.05;98501.32;1630114;86;21554;-37
2021/11/30 12:52:18;;;;;;;4.72;3.83;;;;;;;3.38;63.77;98494.85;1626713;86;21042;-37
2021/11/30 12:54:51;;;;;;;6.60;3.72;;;;;;;3.34;64.35;98489.23;1628923;86;21607;-48
2021/11/30 12:57:34;;;;;;;;;;;;;;;3.33;64.64;98481.48;1646288;85;21019;-47
2021/11/30 13:00:25;;;;;;;5.35;3.05;;;;;;;3.31;65.21;98480.64;1621327;87;20131;-38
2021/11/30 13:02:56;;;;;;;6.45;3.45;;;;;;;3.29;65.64;98478.47;1621811;87;21436;-39
2021/11/30 13:05:27;;;;;;;6.72;4.15;;;;;;;3.27;66.08;98481.06;1619337;87;21564;-38
2021/11/30 13:08:00;;;;;;;6.03;3.58;;;;;;;3.26;66.10;98466.85;1622332;87;21044;-47
2021/11/30 13:10:36;;;;;;;4.72;3.83;;;;;;;3.24;65.85;98460.80;1618231;87;22227;-46
2021/11/30 13:13:08;;;;;;;5.90;3.95;;;;;;;3.22;66.46;98467.70;1623151;86;21052;-46
2021/11/30 13:15:46;;;;;;;5.67;3.98;;;;;;;3.20;65.95;98456.08;1619874;87;21440;-47
2021/11/30 13:18:11;;;;;;;6.35;4.10;;;;;;;3.19;66.11;98459.09;1627384;86;21418;-46
2021/11/30 13:20:38;;;;;;;5.97;3.70;;;;;;;3.18;65.61;98449.59;1623412;86;21075;-46
2021/11/30 13:23:05;;;;;;;5.30;3.55;;;;;;;3.19;65.77;98456.95;1618848;86;21025;-38
2021/11/30 13:25:36;;;;;;;5.30;3.70;;;;;;;3.17;65.88;98452.19;1618357;86;21072;-39
2021/11/30 13:28:08;;;;;;;4.97;3.65;;;;;;;3.15;65.98;98452.63;1598905;87;21302;-39
2021/11/30 13:30:36;;;;;;;5.25;3.25;;;;;;;3.13;66.37;98455.22;1617982;86;21427;-39
2021/11/30 13:33:13;;;;;;;5.00;3.58;;;;;;;3.12;66.10;98459.93;1594571;87;21524;-39
2021/11/30 13:35:43;;;;;;;4.65;3.50;;;;;;;3.13;66.44;98455.62;1591028;88;21040;-40
2021/11/30 13:38:34;;;;;;;7.45;4.28;;;;;;;3.12;66.97;98457.34;1622391;86;20997;-38
2021/11/30 13:41:06;;;;;;;5.90;4.33;;;;;;;3.09;66.98;98449.61;1619849;86;21074;-40
2021/11/30 13:43:43;;;;;;;7.10;5.33;;;;;;;3.04;67.26;98446.59;1616911;86;21064;-39
2021/11/30 13:46:13;;;;;;;6.53;4.75;;;;;;;3.00;67.65;98450.88;1623091;86;21640;-39
2021/11/30 13:48:44;;;;;;;5.92;4.37;;;;;;;2.99;67.98;98457.34;1616678;87;21031;-46
2021/11/30 13:51:16;;;;;;;6.05;4.42;;;;;;;2.96;68.53;98468.55;1622366;86;21081;-46
2021/11/30 13:53:57;;;;;;;7.00;4.70;;;;;;;2.92;68.51;98466.81;1628791;87;21199;-39
2021/11/30 13:56:52;;;;;;;5.72;3.90;;;;;;;2.88;68.57;98462.49;1640468;86;21085;-39
2021/11/30 13:59:19;;;;;;;5.50;4.07;;;;;;;2.86;68.56;98459.92;1608313;87;21128;-39
2021/11/30 14:01:55;;;;;;;4.70;3.42;;;;;;;2.86;68.47;98466.38;1585185;88;21085;-38
2021/11/30 14:04:27;;;;;;;4.90;3.87;;;;;;;2.86;68.18;98462.50;1621044;88;21037;-38
2021/11/30 14:07:01;;;;;;;4.33;3.80;;;;;;;2.87;68.16;98465.51;1633663;86;21041;-39
2021/11/30 14:09:31;;;;;;;5.15;3.70;;;;;;;2.89;67.72;98457.32;1651032;87;21530;-38
2021/11/30 14:12:08;;;;;;;4.97;3.12;;;;;;;2.89;67.77;98450.00;1649451;87;21478;-45
2021/11/30 14:14:38;;;;;;;5.92;4.10;;;;;;;2.88;67.64;98449.58;1615753;87;21035;-45
2021/11/30 14:17:06;;;;;;;5.08;3.30;;;;;;;2.84;67.76;98443.56;1657677;85;21052;-46
2021/11/30 14:19:43;;;;;;;5.87;4.03;;;;;;;2.81;67.67;98442.25;1657805;85;21013;-46
2021/11/30 14:22:15;;;;;;;11.50;6.28;;;;;;;2.78;67.75;98443.95;1657227;85;21615;-46
2021/11/30 14:24:56;;;;;;;9.00;4.95;;;;;;;2.73;67.69;98439.24;1647717;86;21434;-46
2021/11/30 14:27:25;;;;;;;7.12;3.50;;;;;;;2.70;67.35;98435.34;1655275;85;21438;-46
2021/11/30 14:29:52;;;;;;;6.67;3.87;;;;;;;2.65;67.46;98437.91;1679169;85;21068;-39
2021/11/30 14:32:23;;;;;;;6.50;3.98;;;;;;;2.61;67.83;98439.64;1679349;85;21060;-45
2021/11/30 14:34:55;;;;;;;6.65;4.60;;;;;;;2.58;67.94;98434.46;1679539;85;21092;-45
2021/11/30 14:37:34;;;;;;;7.70;4.55;;;;;;;2.55;68.14;98445.20;1677381;85;21588;-44
2021/11/30 14:40:16;;;;;;;6.45;4.40;;;;;;;2.52;68.45;98443.48;1679431;85;21114;-45
2021/11/30 14:42:54;;;;;;;8.25;4.87;;;;;;;2.50;68.52;98446.94;1679479;85;21657;-44
2021/11/30 14:45:28;;;;;;;13.68;6.95;;;;;;;2.48;68.54;98450.78;1671845;85;21528;-44
